Time;durP1;ratioP1;P1;durP2;ratioP2;P2;SDS_P1;SDS_P2;PMS_P1;PMS_P2;Temp;Humidity;BMP_temperature;BMP_pressure;BME280_temperature;BME280_humidity;BME280_pressure;Samples;Min_cycle;Max_cycle;Signal;HPM_P1;HPM_P2
2022/05/15 00:01:54;;;;;;;5.20;4.80;;;19.90;47.70;;;;;;5062913;28;20466;-86
2022/05/15 00:04:21;;;;;;;4.40;4.00;;;19.60;48.20;;;;;;5088043;28;21154;-88
2022/05/15 00:06:50;;;;;;;5.00;4.50;;;19.70;47.50;;;;;;5069400;28;20579;-88
2022/05/15 00:09:17;;;;;;;6.03;4.47;;;19.70;47.70;;;;;;5089059;28;21106;-89
2022/05/15 00:11:44;;;;;;;6.93;4.73;;;19.70;47.70;;;;;;5068329;28;20550;-88
2022/05/15 00:14:12;;;;;;;5.53;5.03;;;19.70;47.60;;;;;;5053556;28;20444;-88
2022/05/15 00:16:39;;;;;;;7.60;5.07;;;19.70;47.90;;;;;;5089313;28;20447;-88
2022/05/15 00:19:06;;;;;;;10.30;5.90;;;19.60;48.10;;;;;;5061742;28;20478;-90
2022/05/15 00:21:35;;;;;;;6.40;4.67;;;19.60;48.20;;;;;;5070587;28;20471;-89
2022/05/15 00:24:04;;;;;;;6.30;4.73;;;19.60;48.50;;;;;;5055527;28;20451;-88
2022/05/15 00:26:31;;;;;;;7.70;5.23;;;19.60;48.40;;;;;;5062336;28;20444;-88
2022/05/15 00:28:58;;;;;;;6.60;4.53;;;19.60;48.60;;;;;;5068359;28;21154;-88
2022/05/15 00:31:26;;;;;;;10.13;4.93;;;19.50;48.70;;;;;;5060042;28;20467;-88
2022/05/15 00:33:53;;;;;;;8.23;5.80;;;19.50;48.90;;;;;;5073163;28;20536;-90
2022/05/15 00:36:20;;;;;;;6.03;5.00;;;19.40;49.00;;;;;;5074746;28;20454;-87
2022/05/15 00:38:47;;;;;;;6.57;5.00;;;19.40;49.10;;;;;;5091234;28;20430;-88
2022/05/15 00:41:16;;;;;;;6.27;5.30;;;19.30;49.40;;;;;;5061318;28;21123;-88
2022/05/15 00:43:46;;;;;;;6.73;4.73;;;19.30;49.40;;;;;;5057443;28;20450;-88
2022/05/15 00:46:17;;;;;;;5.30;4.20;;;19.30;49.30;;;;;;5071972;28;20532;-88
2022/05/15 00:48:48;;;;;;;6.87;4.50;;;19.30;49.20;;;;;;5040955;28;20992;-89
2022/05/15 00:51:19;;;;;;;5.93;4.33;;;19.30;49.40;;;;;;5069638;28;21013;-88
2022/05/15 00:53:48;;;;;;;7.60;5.00;;;19.30;49.50;;;;;;5080152;28;20460;-88
2022/05/15 00:56:19;;;;;;;7.97;4.60;;;19.20;49.70;;;;;;5045906;28;20442;-88
2022/05/15 00:58:50;;;;;;;8.07;4.97;;;19.20;49.60;;;;;;5063763;28;20443;-88
2022/05/15 01:01:19;;;;;;;5.40;4.87;;;19.20;49.80;;;;;;5069896;28;20470;-89
2022/05/15 01:03:47;;;;;;;8.30;5.50;;;19.10;49.50;;;;;;5046276;28;20440;-89
2022/05/15 01:06:15;;;;;;;5.50;4.30;;;19.00;50.00;;;;;;5065204;28;21075;-90
2022/05/15 01:08:43;;;;;;;9.20;5.70;;;19.00;49.90;;;;;;5052684;28;20989;-88
2022/05/15 01:11:15;;;;;;;5.87;4.90;;;19.00;49.90;;;;;;5057397;28;20469;-90
2022/05/15 01:13:44;;;;;;;5.80;4.90;;;19.00;49.70;;;;;;5071697;28;20469;-88
2022/05/15 01:16:13;;;;;;;6.30;5.70;;;19.00;49.60;;;;;;5058264;28;21079;-88
2022/05/15 01:18:41;;;;;;;4.90;4.40;;;19.00;49.60;;;;;;5072612;28;20460;-88
2022/05/15 01:21:26;;;;;;;6.40;4.20;;;18.90;49.70;;;;;;5089250;28;20882;-88
2022/05/15 01:23:56;;;;;;;5.70;4.83;;;18.90;49.80;;;;;;5052955;28;20467;-85
2022/05/15 01:26:25;;;;;;;5.13;4.63;;;18.90;49.70;;;;;;5045945;28;20459;-88
2022/05/15 01:28:52;;;;;;;13.77;4.80;;;18.80;49.60;;;;;;5069145;28;20435;-88
2022/05/15 01:31:20;;;;;;;9.60;5.63;;;18.80;49.50;;;;;;5079210;28;20520;-88
2022/05/15 01:33:49;;;;;;;8.23;5.10;;;18.70;49.80;;;;;;5057871;28;20450;-88
2022/05/15 01:36:17;;;;;;;5.70;4.20;;;18.60;49.90;;;;;;5079014;28;20504;-89
2022/05/15 01:38:47;;;;;;;6.37;4.33;;;18.60;49.80;;;;;;5063035;28;20508;-88
2022/05/15 01:41:14;;;;;;;5.87;5.23;;;18.60;49.60;;;;;;5071306;28;20478;-87
2022/05/15 01:43:43;;;;;;;5.30;4.07;;;18.50;49.70;;;;;;5077434;28;21023;-89
2022/05/15 01:46:11;;;;;;;9.00;4.63;;;18.50;49.90;;;;;;5068705;28;20550;-88
2022/05/15 01:48:38;;;;;;;11.80;5.07;;;18.40;49.90;;;;;;5047033;28;20455;-89
2022/05/15 01:51:06;;;;;;;6.20;4.63;;;18.40;49.40;;;;;;5078232;28;20974;-88
2022/05/15 01:53:33;;;;;;;5.10;4.40;;;18.40;49.10;;;;;;5055810;28;22316;-88
2022/05/15 01:56:04;;;;;;;6.20;4.83;;;18.40;49.00;;;;;;5069608;28;20535;-90
2022/05/15 01:58:31;;;;;;;5.03;4.20;;;18.40;49.50;;;;;;5068745;28;20497;-88
2022/05/15 02:00:59;;;;;;;7.30;4.63;;;18.30;49.40;;;;;;5069807;28;20532;-88
2022/05/15 02:03:27;;;;;;;5.37;4.87;;;18.20;49.50;;;;;;5078596;28;20481;-88
2022/05/15 02:05:54;;;;;;;4.77;4.00;;;18.10;49.80;;;;;;5050261;28;20448;-88
2022/05/15 02:08:22;;;;;;;6.30;4.60;;;18.10;49.80;;;;;;5070384;28;20443;-88
2022/05/15 02:10:49;;;;;;;6.70;4.90;;;18.10;50.10;;;;;;5071201;28;20621;-88
2022/05/15 02:13:18;;;;;;;8.60;4.90;;;18.10;50.20;;;;;;5044718;28;20459;-88
2022/05/15 02:15:45;;;;;;;5.93;5.33;;;18.10;50.00;;;;;;5063101;28;20461;-88
2022/05/15 02:18:12;;;;;;;6.13;5.27;;;18.00;50.50;;;;;;5057933;28;20528;-88
2022/05/15 02:20:39;;;;;;;5.33;4.73;;;18.00;50.50;;;;;;5070887;28;20477;-88
2022/05/15 02:23:06;;;;;;;5.80;5.20;;;18.00;50.60;;;;;;5086116;28;20985;-88
2022/05/15 02:25:34;;;;;;;5.00;4.47;;;18.00;50.50;;;;;;5072981;28;20534;-88
2022/05/15 02:28:00;;;;;;;5.73;5.03;;;18.00;50.20;;;;;;5089273;28;20446;-88
2022/05/15 02:30:29;;;;;;;6.20;4.63;;;18.00;50.20;;;;;;5039119;28;21233;-87
2022/05/15 02:32:56;;;;;;;6.77;5.10;;;18.00;50.10;;;;;;5067482;28;21069;-90
2022/05/15 02:35:23;;;;;;;5.70;4.70;;;17.90;50.10;;;;;;5042322;28;20442;-88
2022/05/15 02:37:50;;;;;;;5.87;4.67;;;17.90;50.00;;;;;;5070898;28;20454;-88
2022/05/15 02:40:18;;;;;;;6.50;5.23;;;17.90;50.10;;;;;;5070943;28;20455;-89
2022/05/15 02:42:45;;;;;;;6.47;4.90;;;17.80;50.00;;;;;;5055110;28;20487;-88
2022/05/15 02:45:14;;;;;;;4.97;4.47;;;17.80;50.10;;;;;;5064712;28;20470;-90
2022/05/15 02:47:42;;;;;;;6.97;5.43;;;17.80;50.70;;;;;;5058742;28;20541;-89
2022/05/15 02:52:55;;;;;;;6.97;5.33;;;17.70;50.00;;;;;;5077727;28;20466;-88
2022/05/15 02:55:23;;;;;;;6.70;4.73;;;17.70;50.10;;;;;;5058808;28;20444;-88
2022/05/15 02:57:51;;;;;;;4.57;4.17;;;17.60;50.30;;;;;;5065092;28;20459;-88
2022/05/15 03:00:20;;;;;;;7.93;5.10;;;17.60;50.30;;;;;;5071836;28;20447;-89
2022/05/15 03:02:49;;;;;;;4.93;4.43;;;17.60;50.30;;;;;;5061101;28;20914;-87
2022/05/15 03:05:18;;;;;;;6.60;4.70;;;17.60;50.30;;;;;;5072190;28;20508;-88
2022/05/15 03:07:45;;;;;;;5.77;4.80;;;17.60;50.50;;;;;;5072840;28;20460;-88
2022/05/15 03:10:15;;;;;;;4.63;4.20;;;17.50;50.20;;;;;;5063633;28;20534;-89
2022/05/15 03:12:42;;;;;;;5.87;4.30;;;17.40;50.40;;;;;;5063950;28;20475;-87
2022/05/15 03:15:14;;;;;;;5.37;4.63;;;17.40;50.60;;;;;;5057682;28;20457;-89
2022/05/15 03:17:42;;;;;;;7.13;5.33;;;17.40;50.50;;;;;;5065481;28;20451;-88
2022/05/15 03:20:12;;;;;;;8.13;4.80;;;17.40;50.80;;;;;;5050482;28;20476;-87
2022/05/15 03:22:39;;;;;;;6.70;5.10;;;17.40;50.50;;;;;;5066212;28;21154;-87
2022/05/15 03:25:07;;;;;;;6.67;5.87;;;17.30;51.10;;;;;;5048101;28;20446;-88
2022/05/15 03:27:34;;;;;;;8.00;5.70;;;17.30;50.70;;;;;;5064109;28;20763;-88
2022/05/15 03:30:02;;;;;;;5.50;5.00;;;17.30;50.20;;;;;;5073819;28;20530;-89
2022/05/15 03:32:29;;;;;;;6.03;4.90;;;17.30;50.20;;;;;;5055789;28;20536;-88
2022/05/15 03:34:57;;;;;;;4.77;4.37;;;17.30;50.20;;;;;;5074351;28;20447;-88
2022/05/15 03:37:25;;;;;;;6.80;4.30;;;17.30;50.20;;;;;;5073704;28;20567;-88
2022/05/15 03:39:53;;;;;;;7.30;5.30;;;17.20;50.20;;;;;;5047672;28;20452;-88
2022/05/15 03:42:20;;;;;;;6.87;5.57;;;17.10;50.30;;;;;;5056461;28;20472;-88
2022/05/15 03:44:47;;;;;;;8.50;5.13;;;17.10;50.20;;;;;;5064253;28;20493;-89
2022/05/15 03:47:14;;;;;;;5.60;4.80;;;17.00;50.20;;;;;;5058137;28;20474;-88
2022/05/15 03:49:41;;;;;;;12.37;5.63;;;17.00;50.40;;;;;;5082420;28;20446;-88
2022/05/15 03:52:10;;;;;;;6.60;5.37;;;17.00;50.70;;;;;;5075728;28;20584;-88
2022/05/15 03:54:38;;;;;;;5.47;4.60;;;17.00;50.50;;;;;;5063248;28;20447;-88
2022/05/15 03:57:06;;;;;;;5.97;4.93;;;17.00;51.10;;;;;;5061871;28;20452;-88
2022/05/15 03:59:36;;;;;;;10.87;6.20;;;17.00;51.10;;;;;;5056121;28;21355;-88
2022/05/15 04:02:05;;;;;;;7.53;5.70;;;17.10;50.60;;;;;;5070809;28;20460;-88
2022/05/15 04:04:33;;;;;;;7.30;5.33;;;17.10;50.30;;;;;;5059296;28;20970;-89
2022/05/15 04:07:00;;;;;;;5.50;4.43;;;17.10;50.10;;;;;;5055534;28;20478;-89
2022/05/15 04:09:29;;;;;;;4.80;4.30;;;17.10;50.30;;;;;;5059053;28;21234;-89
2022/05/15 04:11:58;;;;;;;5.90;5.00;;;17.10;50.50;;;;;;5046902;28;20468;-88
2022/05/15 04:14:26;;;;;;;6.00;5.23;;;17.10;51.30;;;;;;5045902;28;20462;-88
2022/05/15 04:16:53;;;;;;;5.37;4.17;;;17.10;50.50;;;;;;5073101;28;20452;-88
2022/05/15 04:19:20;;;;;;;7.23;4.20;;;17.10;50.70;;;;;;5054862;28;20447;-88
2022/05/15 04:21:47;;;;;;;7.00;4.90;;;17.10;50.80;;;;;;5066051;28;20920;-88
2022/05/15 04:24:16;;;;;;;6.63;4.90;;;17.10;50.60;;;;;;5071444;28;21453;-88
2022/05/15 04:26:46;;;;;;;7.40;4.60;;;17.10;51.10;;;;;;5073178;28;20448;-88
2022/05/15 04:29:15;;;;;;;5.60;5.00;;;17.10;50.90;;;;;;5069528;28;20526;-86
2022/05/15 04:31:42;;;;;;;6.93;5.20;;;17.10;50.50;;;;;;5064742;28;20529;-88
2022/05/15 04:34:09;;;;;;;6.03;5.07;;;17.10;50.70;;;;;;5055939;28;20564;-89
2022/05/15 04:36:36;;;;;;;6.53;4.77;;;17.10;50.70;;;;;;5075584;28;20458;-88
2022/05/15 04:39:05;;;;;;;6.10;5.50;;;17.10;50.90;;;;;;5053604;28;20492;-88
2022/05/15 04:41:32;;;;;;;15.57;5.60;;;17.00;50.90;;;;;;5090890;28;20471;-87
2022/05/15 04:43:59;;;;;;;6.90;5.27;;;17.00;51.20;;;;;;5070731;28;21254;-90
2022/05/15 04:46:29;;;;;;;6.57;4.20;;;17.00;51.30;;;;;;5053968;28;20431;-88
2022/05/15 04:48:56;;;;;;;6.07;4.93;;;17.10;51.40;;;;;;5080459;28;20447;-88
2022/05/15 04:51:23;;;;;;;5.77;5.17;;;17.10;51.40;;;;;;5089767;28;20543;-87
2022/05/15 04:53:50;;;;;;;5.37;4.80;;;17.10;52.40;;;;;;5071889;28;20458;-88
2022/05/15 04:56:17;;;;;;;9.17;5.47;;;17.10;53.10;;;;;;5088208;28;20539;-88
2022/05/15 04:58:44;;;;;;;7.07;5.20;;;17.10;52.70;;;;;;5061413;28;20463;-88
2022/05/15 05:01:11;;;;;;;5.93;5.23;;;17.10;52.70;;;;;;5056775;28;20827;-89
2022/05/15 05:03:40;;;;;;;7.30;5.47;;;17.10;53.20;;;;;;5059579;28;20471;-88
2022/05/15 05:06:07;;;;;;;6.80;6.07;;;16.90;54.20;;;;;;5052425;28;20456;-88
2022/05/15 05:08:34;;;;;;;8.03;5.03;;;16.90;54.30;;;;;;5038230;28;20455;-89
2022/05/15 05:11:01;;;;;;;6.37;5.37;;;17.00;54.40;;;;;;5063324;28;20510;-88
2022/05/15 05:13:28;;;;;;;6.07;4.87;;;17.10;54.30;;;;;;5087539;28;20459;-88
2022/05/15 05:15:54;;;;;;;7.30;5.37;;;17.10;54.30;;;;;;5087572;28;20460;-88
2022/05/15 05:18:21;;;;;;;6.87;5.93;;;17.10;54.30;;;;;;5063202;28;20497;-88
2022/05/15 05:20:50;;;;;;;8.00;6.03;;;17.10;54.40;;;;;;5079754;28;20448;-89
2022/05/15 05:23:16;;;;;;;9.00;6.20;;;17.10;54.50;;;;;;5089654;28;20479;-88
2022/05/15 05:25:43;;;;;;;6.10;5.00;;;17.10;54.40;;;;;;5070337;28;20452;-88
2022/05/15 05:28:11;;;;;;;6.37;5.73;;;17.20;54.70;;;;;;5088153;28;20447;-88
2022/05/15 05:30:38;;;;;;;6.90;6.10;;;17.10;54.80;;;;;;5054512;28;20447;-88
2022/05/15 05:33:05;;;;;;;8.30;5.53;;;17.20;54.60;;;;;;5071222;28;20452;-89
2022/05/15 05:35:33;;;;;;;6.03;5.13;;;17.30;54.70;;;;;;5072075;28;20462;-85
2022/05/15 05:38:02;;;;;;;8.50;5.93;;;17.40;54.40;;;;;;5038117;28;20480;-89
2022/05/15 05:40:29;;;;;;;8.83;5.43;;;17.50;54.20;;;;;;5090094;28;20447;-89
2022/05/15 05:42:55;;;;;;;8.33;5.67;;;17.70;53.90;;;;;;5085612;28;20483;-89
2022/05/15 05:45:23;;;;;;;6.40;5.70;;;17.80;53.80;;;;;;5051984;28;20476;-88
2022/05/15 05:47:51;;;;;;;9.83;6.13;;;17.50;54.20;;;;;;5070473;28;20489;-89
2022/05/15 05:50:24;;;;;;;6.83;6.10;;;17.60;54.30;;;;;;5068822;28;20448;-88
2022/05/15 05:52:51;;;;;;;8.03;5.60;;;17.70;54.00;;;;;;5090798;28;20628;-88
2022/05/15 05:55:20;;;;;;;7.30;5.83;;;17.90;53.90;;;;;;5071111;28;20512;-88
2022/05/15 05:57:48;;;;;;;5.87;5.27;;;18.10;53.80;;;;;;5070870;28;20528;-88
2022/05/15 06:00:18;;;;;;;11.93;5.50;;;18.20;53.60;;;;;;5067556;28;21151;-89
2022/05/15 06:02:45;;;;;;;5.50;5.00;;;18.30;53.50;;;;;;5089219;28;20474;-88
2022/05/15 06:05:12;;;;;;;5.80;4.87;;;18.20;54.10;;;;;;5068172;28;20464;-89
2022/05/15 06:07:39;;;;;;;7.00;5.57;;;17.80;54.40;;;;;;5057579;28;20449;-89
2022/05/15 06:10:09;;;;;;;8.57;6.13;;;17.70;54.90;;;;;;5070608;28;20817;-88
2022/05/15 06:12:40;;;;;;;6.00;5.40;;;17.70;55.30;;;;;;5074330;28;20466;-88
2022/05/15 06:15:08;;;;;;;7.00;5.20;;;17.90;55.00;;;;;;5092580;28;21126;-88
2022/05/15 06:17:35;;;;;;;9.23;5.43;;;18.00;54.40;;;;;;5074737;28;20451;-88
2022/05/15 06:20:07;;;;;;;6.03;4.93;;;18.20;54.50;;;;;;5074530;28;20513;-89
2022/05/15 06:22:34;;;;;;;7.47;5.80;;;18.50;54.30;;;;;;5073172;28;20512;-89
2022/05/15 06:25:00;;;;;;;5.00;4.50;;;18.50;53.80;;;;;;5077928;28;20479;-89
2022/05/15 06:27:28;;;;;;;6.37;5.30;;;18.80;54.10;;;;;;5076188;28;20451;-88
2022/05/15 06:29:57;;;;;;;6.47;5.43;;;18.90;52.90;;;;;;5059035;28;20972;-89
2022/05/15 06:32:25;;;;;;;6.33;5.50;;;19.10;52.50;;;;;;5090346;28;20460;-88
2022/05/15 06:34:52;;;;;;;8.80;4.83;;;19.40;52.90;;;;;;5061719;28;20462;-88
2022/05/15 06:37:19;;;;;;;8.50;5.37;;;19.60;52.70;;;;;;5074731;28;20455;-86
2022/05/15 06:39:46;;;;;;;6.07;5.47;;;19.90;52.40;;;;;;5048303;28;21198;-88
2022/05/15 06:42:13;;;;;;;7.70;5.57;;;20.00;51.90;;;;;;5054693;28;20474;-87
2022/05/15 06:44:43;;;;;;;7.70;5.20;;;20.20;51.20;;;;;;5055802;28;21183;-88
2022/05/15 06:47:11;;;;;;;5.03;4.50;;;20.30;51.20;;;;;;5091356;28;20509;-88
2022/05/15 06:49:38;;;;;;;11.40;5.30;;;20.30;49.80;;;;;;5048226;28;20447;-87
2022/05/15 06:52:05;;;;;;;14.30;4.93;;;20.10;50.80;;;;;;5092822;28;21048;-88
2022/05/15 06:54:32;;;;;;;6.83;5.27;;;20.00;49.50;;;;;;5064019;28;20886;-87
2022/05/15 06:59:44;;;;;;;9.20;6.23;;;20.50;50.00;;;;;;5074395;28;21277;-88
2022/05/15 07:02:13;;;;;;;11.37;4.93;;;20.80;50.20;;;;;;5092461;28;21199;-89
2022/05/15 07:04:40;;;;;;;10.17;6.07;;;20.90;49.80;;;;;;5048959;28;20482;-89
2022/05/15 07:07:07;;;;;;;6.87;5.00;;;20.80;48.50;;;;;;5071379;28;20451;-88
2022/05/15 07:09:35;;;;;;;6.97;6.00;;;21.00;48.60;;;;;;5060204;28;20498;-89
2022/05/15 07:12:02;;;;;;;10.40;5.53;;;21.30;48.80;;;;;;5072096;28;20474;-90
2022/05/15 07:14:29;;;;;;;6.17;3.93;;;21.40;47.90;;;;;;5069101;28;20453;-87
2022/05/15 07:16:56;;;;;;;9.10;4.60;;;21.60;48.30;;;;;;5069180;28;21260;-88
2022/05/15 07:19:24;;;;;;;11.90;5.57;;;21.80;48.70;;;;;;5052528;28;20435;-87
2022/05/15 07:21:52;;;;;;;6.10;4.43;;;21.80;47.00;;;;;;5088979;28;20759;-87
2022/05/15 07:24:19;;;;;;;9.30;4.93;;;21.80;46.70;;;;;;5044708;28;20464;-88
2022/05/15 07:26:46;;;;;;;7.27;4.27;;;21.90;47.50;;;;;;5073407;28;21350;-88
2022/05/15 07:29:13;;;;;;;6.10;4.50;;;22.10;47.50;;;;;;5054362;28;20521;-85
2022/05/15 07:31:41;;;;;;;7.53;4.67;;;22.30;47.00;;;;;;5087507;28;20481;-87
2022/05/15 07:34:08;;;;;;;8.00;5.20;;;22.10;46.10;;;;;;5086867;28;20459;-87
2022/05/15 07:36:38;;;;;;;6.07;4.80;;;22.00;45.80;;;;;;5062317;28;20554;-87
2022/05/15 07:39:05;;;;;;;6.93;4.50;;;22.00;45.90;;;;;;5066534;28;20543;-87
2022/05/15 07:41:32;;;;;;;5.27;4.17;;;22.20;45.90;;;;;;5067965;28;22209;-87
2022/05/15 07:43:59;;;;;;;10.37;5.07;;;22.20;45.20;;;;;;5060369;28;20485;-87
2022/05/15 07:46:26;;;;;;;5.80;4.57;;;22.40;45.70;;;;;;5086469;28;20455;-86
2022/05/15 07:48:54;;;;;;;6.70;4.10;;;22.50;45.50;;;;;;5087608;28;20452;-89
2022/05/15 07:51:21;;;;;;;5.13;4.13;;;22.50;45.30;;;;;;5067786;28;20471;-87
2022/05/15 07:53:49;;;;;;;4.97;4.43;;;22.70;46.30;;;;;;5061114;28;20456;-88
2022/05/15 07:56:16;;;;;;;9.00;4.50;;;22.80;45.00;;;;;;5087173;28;20480;-88
2022/05/15 07:58:43;;;;;;;4.63;4.07;;;22.60;45.00;;;;;;5086055;28;20459;-87
2022/05/15 08:01:10;;;;;;;5.80;4.20;;;22.70;44.70;;;;;;5059686;28;20487;-89
2022/05/15 08:03:43;;;;;;;6.40;4.23;;;22.80;45.30;;;;;;5066924;28;20468;-89
2022/05/15 08:08:57;;;;;;;6.80;4.40;;;22.80;44.10;;;;;;5067453;28;20473;-88
2022/05/15 08:11:28;;;;;;;7.37;4.40;;;22.90;44.50;;;;;;5059129;28;20516;-88
2022/05/15 08:13:55;;;;;;;6.97;4.40;;;22.80;43.60;;;;;;5051301;28;20990;-88
2022/05/15 08:16:22;;;;;;;6.57;4.13;;;22.90;43.70;;;;;;5060784;28;20458;-88
2022/05/15 08:24:19;;;;;;;4.13;3.83;;;23.20;43.30;;;;;;5043758;28;20452;-89
2022/05/15 08:26:46;;;;;;;4.20;3.90;;;23.30;44.20;;;;;;5070907;28;20447;-88
2022/05/15 08:29:13;;;;;;;5.57;4.03;;;23.40;43.40;;;;;;5054164;28;20969;-88
2022/05/15 08:31:40;;;;;;;5.93;3.53;;;23.60;42.60;;;;;;5069912;28;20475;-90
2022/05/15 08:34:07;;;;;;;6.90;4.10;;;23.70;42.60;;;;;;5055530;28;21155;-88
2022/05/15 08:36:36;;;;;;;6.63;4.10;;;24.10;43.00;;;;;;5070134;28;20454;-88
2022/05/15 08:39:04;;;;;;;5.10;3.80;;;24.20;41.70;;;;;;5068867;28;20447;-88
2022/05/15 08:41:41;;;;;;;4.83;4.40;;;24.00;41.80;;;;;;5043075;28;20471;-90
2022/05/15 08:44:11;;;;;;;7.83;4.17;;;24.30;42.40;;;;;;5052045;28;20490;-87
2022/05/15 08:46:47;;;;;;;4.20;3.80;;;24.50;43.00;;;;;;5072645;28;20818;-88
2022/05/15 08:49:21;;;;;;;4.00;3.70;;;24.90;42.40;;;;;;5059425;28;20449;-87
2022/05/15 08:51:57;;;;;;;5.20;3.23;;;25.30;42.20;;;;;;5059057;28;20994;-88
2022/05/15 08:54:24;;;;;;;5.93;3.43;;;25.50;40.90;;;;;;5056525;28;20535;-88
2022/05/15 08:56:53;;;;;;;4.30;3.90;;;25.40;40.60;;;;;;5072898;28;20436;-86
2022/05/15 08:59:39;;;;;;;5.97;4.00;;;25.30;39.50;;;;;;5087512;28;20451;-88
2022/05/15 09:02:08;;;;;;;4.03;3.33;;;25.30;40.10;;;;;;5063808;28;20467;-88
2022/05/15 09:04:35;;;;;;;6.47;3.50;;;25.30;39.80;;;;;;5037799;28;21314;-88
2022/05/15 09:07:12;;;;;;;3.83;3.20;;;25.50;39.00;;;;;;5073176;28;20478;-89
2022/05/15 09:09:49;;;;;;;5.17;3.50;;;25.70;38.70;;;;;;5090246;28;20438;-87
2022/05/15 09:12:20;;;;;;;5.37;3.67;;;25.80;39.70;;;;;;5071859;28;20565;-88
2022/05/15 09:15:00;;;;;;;6.67;3.70;;;26.20;40.00;;;;;;5068851;28;20470;-88
2022/05/15 09:17:33;;;;;;;5.23;3.50;;;26.40;38.10;;;;;;5062343;28;20534;-89
2022/05/15 09:20:05;;;;;;;5.93;4.50;;;26.50;36.50;;;;;;5055555;28;20450;-88
2022/05/15 09:22:36;;;;;;;10.83;3.20;;;26.60;38.00;;;;;;5085460;28;20475;-88
2022/05/15 09:25:10;;;;;;;5.23;3.37;;;26.90;37.20;;;;;;5082352;28;20485;-89
2022/05/15 09:27:39;;;;;;;9.90;3.50;;;27.10;37.40;;;;;;5070323;28;20448;-88
2022/05/15 09:30:10;;;;;;;5.43;3.20;;;27.20;36.50;;;;;;5054336;28;20984;-88
2022/05/15 09:32:39;;;;;;;8.10;3.40;;;27.30;36.20;;;;;;5088991;28;20551;-89
2022/05/15 09:35:16;;;;;;;6.60;3.20;;;27.50;35.90;;;;;;5069857;28;20434;-89
2022/05/15 09:40:40;;;;;;;4.40;3.50;;;27.60;34.40;;;;;;5062409;28;21374;-86
2022/05/15 09:43:33;;;;;;;5.20;3.30;;;27.40;36.30;;;;;;5058834;28;20455;-88
2022/05/15 09:46:07;;;;;;;8.10;3.40;;;27.50;35.80;;;;;;5066726;28;20499;-88
2022/05/15 09:48:37;;;;;;;5.30;3.50;;;27.70;36.20;;;;;;5049942;28;20797;-89
2022/05/15 09:51:10;;;;;;;6.13;3.50;;;27.60;36.20;;;;;;5071944;28;20919;-88
2022/05/15 09:53:44;;;;;;;3.90;3.50;;;27.50;35.60;;;;;;5067684;28;20500;-87
2022/05/15 09:56:14;;;;;;;4.57;3.03;;;27.50;35.80;;;;;;5073215;28;20442;-87
2022/05/15 09:58:53;;;;;;;8.07;3.40;;;27.60;35.80;;;;;;5089463;28;20459;-89
2022/05/15 10:01:25;;;;;;;4.63;3.43;;;27.90;36.60;;;;;;5092781;28;20485;-85
2022/05/15 10:03:55;;;;;;;2.90;2.70;;;28.00;33.60;;;;;;5094789;28;20968;-88
2022/05/15 10:06:25;;;;;;;3.13;2.90;;;28.00;33.90;;;;;;5073613;28;20450;-88
2022/05/15 10:09:12;;;;;;;6.40;3.07;;;27.90;35.10;;;;;;5058863;28;20434;-86
2022/05/15 10:11:42;;;;;;;5.20;2.97;;;28.10;33.80;;;;;;5093127;28;20919;-87
2022/05/15 10:14:23;;;;;;;6.40;3.30;;;28.30;33.80;;;;;;5057818;28;21090;-89
2022/05/15 10:16:54;;;;;;;4.20;2.73;;;28.70;33.20;;;;;;5076248;28;20450;-88
2022/05/15 10:19:29;;;;;;;4.00;3.10;;;29.00;34.40;;;;;;5090463;28;20471;-89
2022/05/15 10:22:10;;;;;;;3.30;3.00;;;28.80;32.00;;;;;;5083623;28;20502;-89
2022/05/15 10:24:42;;;;;;;2.97;2.70;;;28.60;32.50;;;;;;5093123;28;20451;-89
2022/05/15 10:27:15;;;;;;;6.80;3.57;;;28.80;33.00;;;;;;5058372;28;20455;-89
2022/05/15 10:29:50;;;;;;;3.87;2.30;;;28.50;32.50;;;;;;5073062;28;20443;-88
2022/05/15 10:32:22;;;;;;;4.60;3.20;;;28.60;33.10;;;;;;5090579;28;20472;-87
2022/05/15 10:34:49;;;;;;;4.20;2.80;;;28.90;33.10;;;;;;5076851;28;20531;-90
2022/05/15 10:37:36;;;;;;;3.90;2.77;;;29.30;31.40;;;;;;5052221;28;20509;-89
2022/05/15 10:40:17;;;;;;;9.93;2.70;;;29.30;30.10;;;;;;5072000;28;20447;-89
2022/05/15 10:42:55;;;;;;;3.00;2.70;;;28.90;30.40;;;;;;5045568;28;20487;-88
2022/05/15 10:45:33;;;;;;;5.47;2.97;;;28.70;32.80;;;;;;5059074;28;20477;-89
2022/05/15 10:48:16;;;;;;;4.73;2.60;;;29.20;31.40;;;;;;5057498;28;20530;-89
2022/05/15 10:50:51;;;;;;;3.40;2.57;;;29.60;30.20;;;;;;5091408;28;20947;-89
2022/05/15 10:59:31;;;;;;;5.13;2.70;;;29.90;30.10;;;;;;5056843;28;20466;-89
2022/05/15 11:02:10;;;;;;;5.10;3.43;;;29.60;29.70;;;;;;5048758;28;20479;-88
2022/05/15 11:04:46;;;;;;;3.50;2.33;;;29.20;29.90;;;;;;5065774;28;20462;-87
2022/05/15 11:07:21;;;;;;;4.03;2.83;;;29.30;30.10;;;;;;5092109;28;20442;-86
2022/05/15 11:10:09;;;;;;;3.50;2.83;;;29.40;30.00;;;;;;5069594;28;20447;-88
2022/05/15 11:12:43;;;;;;;3.00;2.60;;;29.30;29.60;;;;;;5072572;28;20481;-89
2022/05/15 11:15:31;;;;;;;3.03;2.63;;;29.30;29.90;;;;;;5073240;28;20447;-89
2022/05/15 11:18:07;;;;;;;4.97;2.87;;;29.60;28.70;;;;;;5060155;28;20435;-90
2022/05/15 11:20:39;;;;;;;2.60;2.40;;;29.90;29.40;;;;;;5054456;28;20458;-88
2022/05/15 11:23:16;;;;;;;5.20;2.23;;;30.10;29.50;;;;;;5090877;28;20475;-89
2022/05/15 11:25:47;;;;;;;5.17;2.80;;;30.30;27.80;;;;;;5057296;28;20456;-90
2022/05/15 11:28:21;;;;;;;6.50;2.67;;;30.60;27.80;;;;;;5062236;28;20448;-88
2022/05/15 11:30:56;;;;;;;4.57;2.40;;;31.00;27.60;;;;;;5074140;28;20459;-89
2022/05/15 11:33:34;;;;;;;2.93;2.43;;;31.10;27.00;;;;;;5055220;28;20459;-89
2022/05/15 11:36:12;;;;;;;3.50;2.70;;;31.00;26.70;;;;;;5062418;28;20440;-90
2022/05/15 11:38:49;;;;;;;5.93;2.67;;;31.20;28.50;;;;;;5071918;28;20463;-89
2022/05/15 11:42:08;;;;;;;2.87;2.33;;;31.20;27.20;;;;;;5088039;28;20482;-89
2022/05/15 11:44:37;;;;;;;6.70;2.57;;;31.10;27.00;;;;;;5088845;28;21005;-90
2022/05/15 11:47:34;;;;;;;2.50;2.27;;;30.80;26.90;;;;;;5073835;28;20479;-89
2022/05/15 11:50:09;;;;;;;8.80;2.50;;;30.90;27.10;;;;;;5073224;28;20436;-89
2022/05/15 11:52:40;;;;;;;7.27;2.83;;;30.80;27.50;;;;;;5070655;28;20463;-89
2022/05/15 11:55:36;;;;;;;3.40;2.10;;;30.70;27.40;;;;;;5065093;28;20439;-89
2022/05/15 11:58:23;;;;;;;5.17;2.60;;;30.60;27.80;;;;;;5079489;28;20446;-90
2022/05/15 12:01:14;;;;;;;2.40;2.20;;;29.90;27.20;;;;;;5048571;28;20443;-90
2022/05/15 12:03:56;;;;;;;4.63;2.90;;;29.60;27.30;;;;;;5052213;28;20462;-89
2022/05/15 12:06:28;;;;;;;2.47;2.27;;;29.60;28.20;;;;;;5055624;28;20505;-89
2022/05/15 12:09:34;;;;;;;5.80;2.63;;;29.90;27.00;;;;;;5076270;28;20450;-89
2022/05/15 12:12:56;;;;;;;2.90;2.07;;;30.20;26.80;;;;;;5058006;28;20566;-90
2022/05/15 12:15:39;;;;;;;5.07;2.23;;;30.50;27.00;;;;;;5058671;28;20489;-89
2022/05/15 12:18:29;;;;;;;2.50;2.30;;;30.60;25.80;;;;;;5064984;28;20434;-91
2022/05/15 12:20:57;;;;;;;3.30;2.10;;;30.50;25.80;;;;;;5057432;28;20458;-89
2022/05/15 12:23:31;;;;;;;3.53;2.13;;;30.50;26.30;;;;;;5088813;28;20456;-89
2022/05/15 12:26:01;;;;;;;2.90;2.20;;;30.40;25.90;;;;;;5071905;28;20527;-89
2022/05/15 12:28:53;;;;;;;4.20;2.23;;;30.50;25.60;;;;;;5092047;28;20436;-89
2022/05/15 12:31:25;;;;;;;2.40;2.20;;;30.60;26.10;;;;;;5069856;28;20491;-86
2022/05/15 12:33:53;;;;;;;2.80;2.43;;;30.90;25.40;;;;;;5093742;28;20817;-90
2022/05/15 12:36:28;;;;;;;4.10;2.07;;;31.30;26.50;;;;;;5064005;28;20473;-89
2022/05/15 12:38:58;;;;;;;4.70;2.47;;;31.40;24.60;;;;;;5069968;28;20523;-91
2022/05/15 12:41:32;;;;;;;3.93;2.60;;;31.30;24.50;;;;;;5071775;28;20471;-89
2022/05/15 12:44:01;;;;;;;4.47;2.83;;;31.60;24.90;;;;;;5088319;28;20447;-89
2022/05/15 12:46:35;;;;;;;4.37;2.73;;;31.50;25.10;;;;;;5090006;28;20529;-90
2022/05/15 12:49:04;;;;;;;4.23;2.60;;;31.30;25.20;;;;;;5088164;28;20450;-90
2022/05/15 12:51:33;;;;;;;3.47;2.30;;;31.10;25.10;;;;;;5089995;28;20459;-89
2022/05/15 12:54:04;;;;;;;3.53;2.53;;;31.20;26.10;;;;;;5074209;28;20450;-89
2022/05/15 12:56:33;;;;;;;3.37;1.93;;;31.10;26.40;;;;;;5075399;28;20429;-92
2022/05/15 12:59:07;;;;;;;3.40;2.50;;;31.30;25.40;;;;;;5090946;28;21001;-89
2022/05/15 13:01:35;;;;;;;3.07;2.40;;;31.50;26.30;;;;;;5080756;28;20471;-90
2022/05/15 13:04:04;;;;;;;3.93;2.73;;;31.40;25.90;;;;;;5069309;28;20520;-89
2022/05/15 13:06:38;;;;;;;3.13;2.47;;;31.50;26.50;;;;;;5063504;28;20470;-90
2022/05/15 13:09:09;;;;;;;3.40;2.40;;;31.70;26.40;;;;;;5057946;28;20438;-90
2022/05/15 13:11:40;;;;;;;4.60;2.90;;;31.60;25.90;;;;;;5090089;28;20521;-89
2022/05/15 13:14:17;;;;;;;3.43;2.43;;;31.10;26.50;;;;;;5088944;28;20471;-90
2022/05/15 13:16:47;;;;;;;3.33;2.40;;;31.30;26.10;;;;;;5075740;28;20858;-89
2022/05/15 13:19:16;;;;;;;2.40;2.20;;;31.20;25.50;;;;;;5061951;28;20454;-88
2022/05/15 13:21:49;;;;;;;2.37;2.17;;;31.40;25.70;;;;;;5089723;28;20462;-88
2022/05/15 13:24:19;;;;;;;3.30;2.20;;;31.30;25.40;;;;;;5075229;28;20440;-89
2022/05/15 13:26:48;;;;;;;4.90;2.90;;;31.40;26.60;;;;;;5057578;28;20497;-89